Strona główna
METAR-TAF:

METAR-TAF

Lotnisko :

Port lotniczy Halmstad

Halmstad, Szwecja

Szerokość geograficzna: 56-41N, Długość geograficzna: 012-50E, wysokość: 30 m

Aktualna obserwacja pogody

Raport powstał 26 minut temu, godzina 10:50 UTC
Wiatr 21 kt od zachodnio-północny zachód
Temperatura 5°C
Wilgotność 60%
Ciśnienie 1002 hPa
Widzialność 10 km lub więcej
Brak chmur poniżej 1500 m i brak chmur cumulonimbus

METAR: ESMT 031050Z 29021KT CAVOK 05/M02 Q1002

czas: 13:16 (11:16 UTC)

Prognoza

Raport powstał 2 godziny i 13 minut temu, godzina 09:03 UTC
Prognoza ważna od 03 godzina 09 UTC do 03 godzina 15 UTC
Wiatr 22 kt od zachodnio-północny zachód
Widzialność 10 km lub więcej
Rozproszone chmury na wysokości 2500 ft
Przejściowo
od 03 godzina 09 UTC do 03 godzina 15 UTC
Wiatr 25 kt od zachodnio-północny zachód w porywach dochodzący do 35 kt

TAF: ESMT 030903Z 0309/0315 29022KT 9999 SCT025 TEMPO 0309/0315 29025G35KT

Obserwacja i prognoza pogody dla ponad 4000 lotnisk (raport METAR i TAF).

Dostępne stacje oznaczono żółtymi i czerwonymi punktami na mapie.

Najedź kursorem aby zobaczyć nazwę stacji.

Kliknij aby zobaczyć obserwacje i prognozy pogody.

Aby zmienić mapę: kliknij na zielony przycisk z czarnym krzyżykiem, aby powiększyć; na zielony przycisk z myślnikiem, aby pomniejszyć; na zielone strzałki, aby przejść do map sąsiednich.


METAR-TAF: